Ana Sayfa
METAR-TAF:

METAR-TAF

Havaalanları :

Midland, Teksas, Amerika Birleşik Devletleri

Enlem: 31-56-52N, Boylam: 102-12-31W, yükseklik: 875 m

Güncel hava durumu gözlemi

Rapor saat 02:53 UTC de 1 saat ve 5 dakika önce yapıldı.
Rüzgar güneydan 7 kt
Sıcaklık 14°C
Nem 28%
Basınç 1018 hPa
Görüş mesafesi: 16.1 km
Açık gökyüzü

METAR: KMAF 040253Z 17007KT 10SM CLR 14/M04 A3006 RMK AO2 SLP158 T01391039 53012

Saat: 21:58 (03:58 UTC)

Tahmin

Rapor saat 23:20 UTC de 4 saat ve 38 dakika önce yapıldı.
Ayın 04'si saat 00 UTC'den ayın 04'si saat 24 UTC'ye kadar geçerli Tahmin
Rüzgar güney/güneybatıdan 9 kt
Görüş mesafesi: 10 km
25000 ft yükseklikte az bulutlu
Ayın 04'si saat 1700 UTC'den
Rüzgar güney/güneybatıdan 22 kt ve 32 kt'a kadar ani rüzgarlar
Görüş mesafesi: 10 km
25000 ft yükseklikte parçalı bulutlu

TAF: KMAF 032320Z 0400/0424 21009KT P6SM FEW250 FM041700 21022G32KT P6SM SCT250

4.000'den fazla havaalanı için hava durumu gözlemleri ve tahminleri (METAR ve TAF raporları).

Kullanılabilir istasyonlar harita üzerinde sarı ve kırmızı noktalarla gösterilir.

İstasyonun adını görmek için fareyi noktanın üzerinde gezdirin.

Sonrasında hava gözlem ve tahminlerini görmek için tıklayın.

Haritayı değiştirmek için: yaklaştırmak için siyah artı işaretli yeşil düğmeye ve uzaklaştırmak için de eksi işaretli düğmeye hızla tıklayın; bitişik haritalar için yeşil okları kullanın.


METAR-TAF: